sensor_id;sensor_type;location;lat;lon;timestamp;pressure;altitude;pressure_sealevel;temperature;humidity
70127;BME280;57491;42.694;23.314;2023-08-06T00:00:22;94028.53;;;21.41;76.89
70127;BME280;57491;42.694;23.314;2023-08-06T00:02:49;94003.72;;;21.26;77.54
70127;BME280;57491;42.694;23.314;2023-08-06T00:05:16;93990.75;;;21.30;77.35
70127;BME280;57491;42.694;23.314;2023-08-06T00:07:46;94053.13;;;21.36;74.32
70127;BME280;57491;42.694;23.314;2023-08-06T00:10:13;94056.31;;;21.38;76.69
70127;BME280;57491;42.694;23.314;2023-08-06T00:12:40;94042.31;;;21.32;74.85
70127;BME280;57491;42.694;23.314;2023-08-06T00:15:07;94043.91;;;21.33;74.85
70127;BME280;57491;42.694;23.314;2023-08-06T00:17:35;94041.25;;;21.33;75.17
70127;BME280;57491;42.694;23.314;2023-08-06T00:20:02;94030.91;;;21.42;75.04
70127;BME280;57491;42.694;23.314;2023-08-06T00:22:30;94022.97;;;21.47;75.07
70127;BME280;57491;42.694;23.314;2023-08-06T00:24:57;94027.16;;;21.48;74.65
70127;BME280;57491;42.694;23.314;2023-08-06T00:27:24;94040.13;;;21.50;74.42
70127;BME280;57491;42.694;23.314;2023-08-06T00:29:51;94046.19;;;21.50;75.07
70127;BME280;57491;42.694;23.314;2023-08-06T00:32:17;94035.06;;;21.53;74.97
70127;BME280;57491;42.694;23.314;2023-08-06T00:34:46;94025.03;;;21.50;74.57
70127;BME280;57491;42.694;23.314;2023-08-06T00:37:15;94000.72;;;21.48;74.86
70127;BME280;57491;42.694;23.314;2023-08-06T00:39:42;94016.06;;;21.51;77.29
70127;BME280;57491;42.694;23.314;2023-08-06T00:42:09;94003.63;;;21.52;74.39
70127;BME280;57491;42.694;23.314;2023-08-06T00:44:36;94002.84;;;21.51;73.84
70127;BME280;57491;42.694;23.314;2023-08-06T00:47:03;94004.97;;;21.44;73.42
70127;BME280;57491;42.694;23.314;2023-08-06T00:49:29;94014.47;;;21.50;74.67
70127;BME280;57491;42.694;23.314;2023-08-06T00:51:58;94009.72;;;21.47;73.86
70127;BME280;57491;42.694;23.314;2023-08-06T00:54:26;94009.50;;;21.39;72.68
70127;BME280;57491;42.694;23.314;2023-08-06T00:56:54;93996.28;;;21.39;72.52
70127;BME280;57491;42.694;23.314;2023-08-06T00:59:20;93995.22;;;21.34;73.13
70127;BME280;57491;42.694;23.314;2023-08-06T01:01:47;93998.94;;;21.33;73.80
70127;BME280;57491;42.694;23.314;2023-08-06T01:04:15;93992.34;;;21.31;73.74
70127;BME280;57491;42.694;23.314;2023-08-06T01:06:43;93979.13;;;21.26;73.47
70127;BME280;57491;42.694;23.314;2023-08-06T01:09:15;93956.13;;;21.26;74.08
70127;BME280;57491;42.694;23.314;2023-08-06T01:11:46;93946.34;;;21.27;74.31
70127;BME280;57491;42.694;23.314;2023-08-06T01:14:18;93952.44;;;21.27;74.05
70127;BME280;57491;42.694;23.314;2023-08-06T01:16:48;93971.50;;;21.19;73.97
70127;BME280;57491;42.694;23.314;2023-08-06T01:19:16;93977.06;;;21.13;75.17
70127;BME280;57491;42.694;23.314;2023-08-06T01:21:44;93969.13;;;21.18;74.61
70127;BME280;57491;42.694;23.314;2023-08-06T01:24:11;93964.88;;;21.22;75.28
70127;BME280;57491;42.694;23.314;2023-08-06T01:26:39;93968.31;;;21.27;74.09
70127;BME280;57491;42.694;23.314;2023-08-06T01:29:10;93959.56;;;21.32;75.16
70127;BME280;57491;42.694;23.314;2023-08-06T01:31:39;93949.00;;;21.27;74.36
70127;BME280;57491;42.694;23.314;2023-08-06T01:34:09;93951.66;;;21.27;75.11
70127;BME280;57491;42.694;23.314;2023-08-06T01:36:37;93942.63;;;21.33;75.58
70127;BME280;57491;42.694;23.314;2023-08-06T01:39:06;93944.97;;;21.34;75.47
70127;BME280;57491;42.694;23.314;2023-08-06T01:41:33;93955.84;;;21.38;75.60
70127;BME280;57491;42.694;23.314;2023-08-06T01:44:00;93944.69;;;21.46;75.86
70127;BME280;57491;42.694;23.314;2023-08-06T01:46:27;93951.25;;;21.49;75.81
70127;BME280;57491;42.694;23.314;2023-08-06T01:48:53;93949.44;;;21.44;75.20
70127;BME280;57491;42.694;23.314;2023-08-06T01:51:20;93944.97;;;21.40;73.13
70127;BME280;57491;42.694;23.314;2023-08-06T01:53:47;93950.84;;;21.26;74.49
70127;BME280;57491;42.694;23.314;2023-08-06T01:56:15;93950.88;;;21.21;74.75
70127;BME280;57491;42.694;23.314;2023-08-06T01:58:42;93940.06;;;21.18;76.00
70127;BME280;57491;42.694;23.314;2023-08-06T02:01:09;93943.50;;;21.13;76.23
70127;BME280;57491;42.694;23.314;2023-08-06T02:03:36;93932.16;;;21.13;75.82
70127;BME280;57491;42.694;23.314;2023-08-06T02:06:03;93924.22;;;21.08;75.68
70127;BME280;57491;42.694;23.314;2023-08-06T02:08:30;93927.63;;;21.08;75.72
70127;BME280;57491;42.694;23.314;2023-08-06T02:10:56;93925.28;;;21.12;75.45
70127;BME280;57491;42.694;23.314;2023-08-06T02:13:26;93929.25;;;21.14;75.73
70127;BME280;57491;42.694;23.314;2023-08-06T02:15:52;93925.78;;;21.19;76.22
70127;BME280;57491;42.694;23.314;2023-08-06T02:18:19;93938.47;;;21.17;75.92
70127;BME280;57491;42.694;23.314;2023-08-06T02:20:54;93937.94;;;21.10;75.85
70127;BME280;57491;42.694;23.314;2023-08-06T02:23:21;93954.38;;;21.07;76.24
70127;BME280;57491;42.694;23.314;2023-08-06T02:25:48;93968.16;;;20.93;76.31
70127;BME280;57491;42.694;23.314;2023-08-06T02:28:15;93972.91;;;20.86;77.67
70127;BME280;57491;42.694;23.314;2023-08-06T02:30:50;93951.22;;;20.89;80.11
70127;BME280;57491;42.694;23.314;2023-08-06T02:33:17;93944.63;;;20.92;80.82
70127;BME280;57491;42.694;23.314;2023-08-06T02:35:44;93943.56;;;20.98;79.69
70127;BME280;57491;42.694;23.314;2023-08-06T02:38:11;93938.00;;;21.00;82.72
70127;BME280;57491;42.694;23.314;2023-08-06T02:40:42;93965.19;;;21.05;79.71
70127;BME280;57491;42.694;23.314;2023-08-06T02:43:09;93988.97;;;21.10;79.41
70127;BME280;57491;42.694;23.314;2023-08-06T02:45:36;93987.38;;;21.09;77.92
70127;BME280;57491;42.694;23.314;2023-08-06T02:48:04;93994.00;;;21.07;78.19
70127;BME280;57491;42.694;23.314;2023-08-06T02:50:31;93971.53;;;21.09;79.02
70127;BME280;57491;42.694;23.314;2023-08-06T02:53:03;93953.28;;;21.18;78.38
70127;BME280;57491;42.694;23.314;2023-08-06T02:55:30;93943.22;;;21.25;78.66
70127;BME280;57491;42.694;23.314;2023-08-06T02:57:57;93920.94;;;21.31;79.10
70127;BME280;57491;42.694;23.314;2023-08-06T03:00:24;93927.56;;;21.33;79.25
70127;BME280;57491;42.694;23.314;2023-08-06T03:02:51;93908.75;;;21.40;80.15
70127;BME280;57491;42.694;23.314;2023-08-06T03:05:19;93931.47;;;21.41;79.60
70127;BME280;57491;42.694;23.314;2023-08-06T03:07:46;93932.50;;;21.45;78.54
70127;BME280;57491;42.694;23.314;2023-08-06T03:10:13;93891.28;;;21.39;79.43
70127;BME280;57491;42.694;23.314;2023-08-06T03:12:40;93875.38;;;21.49;79.45
70127;BME280;57491;42.694;23.314;2023-08-06T03:15:07;93892.81;;;21.50;78.32
70127;BME280;57491;42.694;23.314;2023-08-06T03:17:34;93952.16;;;21.34;77.79
70127;BME280;57491;42.694;23.314;2023-08-06T03:20:01;93924.66;;;21.30;79.01
70127;BME280;57491;42.694;23.314;2023-08-06T03:22:29;93889.53;;;21.29;79.15
70127;BME280;57491;42.694;23.314;2023-08-06T03:24:56;93879.22;;;21.28;77.97
70127;BME280;57491;42.694;23.314;2023-08-06T03:27:23;93883.94;;;21.31;78.34
70127;BME280;57491;42.694;23.314;2023-08-06T03:29:50;93903.25;;;21.26;78.17
70127;BME280;57491;42.694;23.314;2023-08-06T03:32:16;93925.75;;;21.24;78.99
70127;BME280;57491;42.694;23.314;2023-08-06T03:34:43;93942.16;;;21.21;77.70
70127;BME280;57491;42.694;23.314;2023-08-06T03:37:10;93966.78;;;21.16;78.71
70127;BME280;57491;42.694;23.314;2023-08-06T03:39:38;93975.22;;;21.18;79.96
70127;BME280;57491;42.694;23.314;2023-08-06T03:42:05;93960.66;;;21.21;79.96
70127;BME280;57491;42.694;23.314;2023-08-06T03:44:32;93949.78;;;21.27;78.17
70127;BME280;57491;42.694;23.314;2023-08-06T03:46:59;93952.97;;;21.29;78.35
70127;BME280;57491;42.694;23.314;2023-08-06T03:49:26;93960.03;;;21.39;78.03
70127;BME280;57491;42.694;23.314;2023-08-06T03:51:53;93949.41;;;21.49;78.76
70127;BME280;57491;42.694;23.314;2023-08-06T03:54:19;93954.69;;;21.49;77.68
70127;BME280;57491;42.694;23.314;2023-08-06T03:56:47;93967.63;;;21.56;77.28
70127;BME280;57491;42.694;23.314;2023-08-06T03:59:14;93957.31;;;21.54;78.14
70127;BME280;57491;42.694;23.314;2023-08-06T04:01:41;93957.81;;;21.61;78.52
70127;BME280;57491;42.694;23.314;2023-08-06T04:04:08;93960.69;;;21.70;77.61
70127;BME280;57491;42.694;23.314;2023-08-06T04:06:36;93960.91;;;21.73;77.13
70127;BME280;57491;42.694;23.314;2023-08-06T04:09:02;93969.91;;;21.72;77.00
70127;BME280;57491;42.694;23.314;2023-08-06T04:11:29;93978.09;;;21.71;76.29
70127;BME280;57491;42.694;23.314;2023-08-06T04:13:57;93976.56;;;21.70;76.15
70127;BME280;57491;42.694;23.314;2023-08-06T04:16:24;93984.53;;;21.60;75.86
70127;BME280;57491;42.694;23.314;2023-08-06T04:18:52;93979.47;;;21.68;75.53
70127;BME280;57491;42.694;23.314;2023-08-06T04:21:21;93974.91;;;21.79;75.56
70127;BME280;57491;42.694;23.314;2023-08-06T04:23:48;93972.19;;;21.84;75.60
70127;BME280;57491;42.694;23.314;2023-08-06T04:26:15;93973.22;;;21.93;75.52
70127;BME280;57491;42.694;23.314;2023-08-06T04:28:41;93954.66;;;21.98;75.11
70127;BME280;57491;42.694;23.314;2023-08-06T04:31:10;93955.69;;;22.02;75.40
70127;BME280;57491;42.694;23.314;2023-08-06T04:33:36;93955.44;;;22.04;75.35
70127;BME280;57491;42.694;23.314;2023-08-06T04:36:03;93950.72;;;21.91;75.90
70127;BME280;57491;42.694;23.314;2023-08-06T04:38:30;93939.63;;;21.94;76.39
70127;BME280;57491;42.694;23.314;2023-08-06T04:40:57;93942.72;;;22.06;76.17
70127;BME280;57491;42.694;23.314;2023-08-06T04:43:24;93930.75;;;22.13;75.18
70127;BME280;57491;42.694;23.314;2023-08-06T04:45:52;93928.03;;;22.18;76.20
70127;BME280;57491;42.694;23.314;2023-08-06T04:48:21;93919.81;;;22.20;75.08
70127;BME280;57491;42.694;23.314;2023-08-06T04:50:48;93911.31;;;22.23;73.63
70127;BME280;57491;42.694;23.314;2023-08-06T04:53:16;93896.47;;;22.27;74.02
70127;BME280;57491;42.694;23.314;2023-08-06T04:55:43;93898.50;;;22.35;73.88
70127;BME280;57491;42.694;23.314;2023-08-06T04:58:10;93885.25;;;22.35;73.89
70127;BME280;57491;42.694;23.314;2023-08-06T05:00:37;93889.75;;;22.35;73.41
70127;BME280;57491;42.694;23.314;2023-08-06T05:03:04;93887.69;;;22.32;73.97
70127;BME280;57491;42.694;23.314;2023-08-06T05:05:33;93886.50;;;22.43;73.63
70127;BME280;57491;42.694;23.314;2023-08-06T05:08:00;93886.00;;;22.41;72.08
70127;BME280;57491;42.694;23.314;2023-08-06T05:10:27;93894.22;;;22.39;72.99
70127;BME280;57491;42.694;23.314;2023-08-06T05:12:54;93889.84;;;22.53;73.78
70127;BME280;57491;42.694;23.314;2023-08-06T05:15:21;93896.75;;;22.78;72.15
70127;BME280;57491;42.694;23.314;2023-08-06T05:17:47;93892.41;;;23.06;70.91
70127;BME280;57491;42.694;23.314;2023-08-06T05:20:14;93899.84;;;23.28;71.13
70127;BME280;57491;42.694;23.314;2023-08-06T05:22:43;93901.66;;;23.51;69.42
70127;BME280;57491;42.694;23.314;2023-08-06T05:25:12;93899.88;;;23.65;68.94
70127;BME280;57491;42.694;23.314;2023-08-06T05:27:39;93901.00;;;23.78;68.80
70127;BME280;57491;42.694;23.314;2023-08-06T05:30:06;93899.41;;;23.95;68.14
70127;BME280;57491;42.694;23.314;2023-08-06T05:32:33;93910.34;;;24.08;67.54
70127;BME280;57491;42.694;23.314;2023-08-06T05:35:00;93903.59;;;24.15;66.71
70127;BME280;57491;42.694;23.314;2023-08-06T05:37:27;93896.50;;;24.11;66.14
70127;BME280;57491;42.694;23.314;2023-08-06T05:39:55;93894.09;;;24.28;65.95
70127;BME280;57491;42.694;23.314;2023-08-06T05:42:22;93892.28;;;24.56;66.97
70127;BME280;57491;42.694;23.314;2023-08-06T05:44:49;93887.75;;;24.83;64.81
70127;BME280;57491;42.694;23.314;2023-08-06T05:47:16;93880.28;;;24.99;63.05
70127;BME280;57491;42.694;23.314;2023-08-06T05:49:42;93875.47;;;25.01;62.11
70127;BME280;57491;42.694;23.314;2023-08-06T05:52:09;93886.53;;;24.95;60.61
70127;BME280;57491;42.694;23.314;2023-08-06T05:54:36;93896.84;;;24.96;60.39
70127;BME280;57491;42.694;23.314;2023-08-06T05:57:05;93904.91;;;25.05;60.64
70127;BME280;57491;42.694;23.314;2023-08-06T05:59:32;93897.22;;;25.30;59.73
70127;BME280;57491;42.694;23.314;2023-08-06T06:01:58;93908.59;;;25.58;59.20
70127;BME280;57491;42.694;23.314;2023-08-06T06:04:25;93907.34;;;25.56;58.76
70127;BME280;57491;42.694;23.314;2023-08-06T06:06:53;93910.78;;;25.56;58.22
70127;BME280;57491;42.694;23.314;2023-08-06T06:09:20;93923.44;;;25.73;59.23
70127;BME280;57491;42.694;23.314;2023-08-06T06:11:47;93917.97;;;25.92;57.24
70127;BME280;57491;42.694;23.314;2023-08-06T06:14:16;93914.44;;;25.83;56.12
70127;BME280;57491;42.694;23.314;2023-08-06T06:16:43;93918.63;;;25.97;55.68
70127;BME280;57491;42.694;23.314;2023-08-06T06:19:10;93929.44;;;25.79;55.25
70127;BME280;57491;42.694;23.314;2023-08-06T06:21:37;93931.47;;;25.59;54.66
70127;BME280;57491;42.694;23.314;2023-08-06T06:24:04;93943.78;;;25.42;54.26
70127;BME280;57491;42.694;23.314;2023-08-06T06:26:31;93953.53;;;25.46;54.16
70127;BME280;57491;42.694;23.314;2023-08-06T06:28:57;93950.88;;;25.60;54.35
70127;BME280;57491;42.694;23.314;2023-08-06T06:31:26;93959.78;;;25.91;53.87
70127;BME280;57491;42.694;23.314;2023-08-06T06:33:53;93952.56;;;26.28;55.15
70127;BME280;57491;42.694;23.314;2023-08-06T06:36:20;93961.41;;;26.37;55.20
70127;BME280;57491;42.694;23.314;2023-08-06T06:38:47;93972.53;;;26.39;53.46
70127;BME280;57491;42.694;23.314;2023-08-06T06:41:14;93975.88;;;26.22;54.88
70127;BME280;57491;42.694;23.314;2023-08-06T06:43:41;93987.34;;;26.09;54.74
70127;BME280;57491;42.694;23.314;2023-08-06T06:46:08;93981.09;;;25.91;54.38
70127;BME280;57491;42.694;23.314;2023-08-06T06:48:36;93981.91;;;25.78;54.42
70127;BME280;57491;42.694;23.314;2023-08-06T06:51:03;93993.28;;;25.43;56.41
70127;BME280;57491;42.694;23.314;2023-08-06T06:53:30;93986.28;;;25.19;57.08
70127;BME280;57491;42.694;23.314;2023-08-06T06:56:01;93996.63;;;25.21;58.02
70127;BME280;57491;42.694;23.314;2023-08-06T06:58:28;93990.13;;;25.27;57.34
70127;BME280;57491;42.694;23.314;2023-08-06T07:00:55;94000.06;;;25.49;57.15
70127;BME280;57491;42.694;23.314;2023-08-06T07:03:21;94011.69;;;25.80;56.01
70127;BME280;57491;42.694;23.314;2023-08-06T07:05:50;94008.72;;;26.17;55.77
70127;BME280;57491;42.694;23.314;2023-08-06T07:08:17;94015.00;;;26.35;53.48
70127;BME280;57491;42.694;23.314;2023-08-06T07:10:44;94011.41;;;26.40;53.84
70127;BME280;57491;42.694;23.314;2023-08-06T07:13:11;94013.69;;;26.46;53.19
70127;BME280;57491;42.694;23.314;2023-08-06T07:15:37;94025.25;;;26.64;51.69
70127;BME280;57491;42.694;23.314;2023-08-06T07:18:04;94010.19;;;26.90;51.50
70127;BME280;57491;42.694;23.314;2023-08-06T07:20:31;94018.50;;;26.89;50.44
70127;BME280;57491;42.694;23.314;2023-08-06T07:23:01;94017.00;;;26.96;48.88
70127;BME280;57491;42.694;23.314;2023-08-06T07:25:28;94019.25;;;27.12;49.29
70127;BME280;57491;42.694;23.314;2023-08-06T07:27:55;94020.69;;;27.18;47.94
70127;BME280;57491;42.694;23.314;2023-08-06T07:30:23;94012.53;;;27.14;48.21
70127;BME280;57491;42.694;23.314;2023-08-06T07:32:50;94014.97;;;27.02;48.27
70127;BME280;57491;42.694;23.314;2023-08-06T07:35:16;94027.78;;;26.91;48.49
70127;BME280;57491;42.694;23.314;2023-08-06T07:37:43;94018.41;;;27.02;48.98
70127;BME280;57491;42.694;23.314;2023-08-06T07:40:12;94013.66;;;27.22;47.89
70127;BME280;57491;42.694;23.314;2023-08-06T07:42:39;94009.84;;;27.54;46.65
70127;BME280;57491;42.694;23.314;2023-08-06T07:45:06;94004.41;;;27.76;45.89
70127;BME280;57491;42.694;23.314;2023-08-06T07:47:33;94005.84;;;27.99;45.33
70127;BME280;57491;42.694;23.314;2023-08-06T07:50:00;94007.72;;;27.81;45.02
70127;BME280;57491;42.694;23.314;2023-08-06T07:52:27;94001.44;;;27.69;44.87
70127;BME280;57491;42.694;23.314;2023-08-06T07:54:53;94004.56;;;27.79;45.74
70127;BME280;57491;42.694;23.314;2023-08-06T07:57:22;94002.38;;;27.81;45.53
70127;BME280;57491;42.694;23.314;2023-08-06T07:59:49;94002.97;;;27.70;44.85
70127;BME280;57491;42.694;23.314;2023-08-06T08:02:15;94006.56;;;27.65;46.11
70127;BME280;57491;42.694;23.314;2023-08-06T08:04:43;94005.97;;;27.68;46.57
70127;BME280;57491;42.694;23.314;2023-08-06T08:07:12;94003.63;;;27.84;46.68
70127;BME280;57491;42.694;23.314;2023-08-06T08:09:39;93998.03;;;28.11;44.94
70127;BME280;57491;42.694;23.314;2023-08-06T08:12:06;93993.47;;;28.29;43.79
70127;BME280;57491;42.694;23.314;2023-08-06T08:14:34;93997.09;;;28.24;43.86
70127;BME280;57491;42.694;23.314;2023-08-06T08:17:02;94003.84;;;28.39;44.27
70127;BME280;57491;42.694;23.314;2023-08-06T08:19:29;93996.44;;;28.62;44.00
70127;BME280;57491;42.694;23.314;2023-08-06T08:21:56;94000.31;;;28.99;43.70
70127;BME280;57491;42.694;23.314;2023-08-06T08:24:23;93995.66;;;29.25;43.80
70127;BME280;57491;42.694;23.314;2023-08-06T08:26:50;93998.38;;;29.54;42.83
70127;BME280;57491;42.694;23.314;2023-08-06T08:29:17;93998.31;;;29.34;41.77
70127;BME280;57491;42.694;23.314;2023-08-06T08:31:45;93997.09;;;29.14;42.25
70127;BME280;57491;42.694;23.314;2023-08-06T08:34:14;94000.50;;;29.40;41.20
70127;BME280;57491;42.694;23.314;2023-08-06T08:36:41;94009.28;;;29.49;42.10
70127;BME280;57491;42.694;23.314;2023-08-06T08:39:08;93995.50;;;29.59;40.69
70127;BME280;57491;42.694;23.314;2023-08-06T08:41:37;93993.63;;;29.89;40.74
70127;BME280;57491;42.694;23.314;2023-08-06T08:44:05;93999.59;;;30.16;40.25
70127;BME280;57491;42.694;23.314;2023-08-06T08:46:33;93999.13;;;30.55;39.77
70127;BME280;57491;42.694;23.314;2023-08-06T08:49:02;93985.00;;;30.79;38.67
70127;BME280;57491;42.694;23.314;2023-08-06T08:51:29;93999.78;;;30.85;37.44
70127;BME280;57491;42.694;23.314;2023-08-06T08:53:57;93988.69;;;30.74;39.02
70127;BME280;57491;42.694;23.314;2023-08-06T08:56:24;93984.22;;;30.78;38.32
70127;BME280;57491;42.694;23.314;2023-08-06T08:58:51;93979.66;;;30.91;38.24
70127;BME280;57491;42.694;23.314;2023-08-06T09:01:18;93985.31;;;31.10;38.37
70127;BME280;57491;42.694;23.314;2023-08-06T09:03:45;93976.84;;;31.32;38.11
70127;BME280;57491;42.694;23.314;2023-08-06T09:06:15;93973.72;;;31.55;37.46
70127;BME280;57491;42.694;23.314;2023-08-06T09:08:47;93972.38;;;31.73;36.57
70127;BME280;57491;42.694;23.314;2023-08-06T09:11:16;93972.16;;;31.66;36.89
70127;BME280;57491;42.694;23.314;2023-08-06T09:13:44;93973.28;;;31.65;37.24
70127;BME280;57491;42.694;23.314;2023-08-06T09:16:11;93979.75;;;31.76;37.54
70127;BME280;57491;42.694;23.314;2023-08-06T09:18:38;93966.28;;;32.00;36.25
70127;BME280;57491;42.694;23.314;2023-08-06T09:21:05;93959.72;;;32.25;35.48
70127;BME280;57491;42.694;23.314;2023-08-06T09:23:33;93955.94;;;32.54;35.25
70127;BME280;57491;42.694;23.314;2023-08-06T09:26:00;93959.66;;;32.50;33.97
70127;BME280;57491;42.694;23.314;2023-08-06T09:28:36;93950.09;;;32.52;34.88
70127;BME280;57491;42.694;23.314;2023-08-06T09:31:04;93950.63;;;32.58;34.53
70127;BME280;57491;42.694;23.314;2023-08-06T09:33:31;93948.97;;;32.81;33.34
70127;BME280;57491;42.694;23.314;2023-08-06T09:36:00;93945.84;;;32.51;32.79
70127;BME280;57491;42.694;23.314;2023-08-06T09:38:38;93948.72;;;32.58;32.27
70127;BME280;57491;42.694;23.314;2023-08-06T09:41:06;93934.31;;;32.94;32.76
70127;BME280;57491;42.694;23.314;2023-08-06T09:43:40;93928.69;;;33.31;32.25
70127;BME280;57491;42.694;23.314;2023-08-06T09:46:11;93937.03;;;33.41;32.23
70127;BME280;57491;42.694;23.314;2023-08-06T09:48:39;93933.13;;;33.89;32.21
70127;BME280;57491;42.694;23.314;2023-08-06T09:51:07;93935.31;;;33.84;30.17
70127;BME280;57491;42.694;23.314;2023-08-06T09:53:34;93939.78;;;33.95;29.39
70127;BME280;57491;42.694;23.314;2023-08-06T09:56:05;93949.06;;;33.79;29.38
70127;BME280;57491;42.694;23.314;2023-08-06T09:58:32;93935.53;;;33.44;29.57
70127;BME280;57491;42.694;23.314;2023-08-06T10:01:00;93944.19;;;33.06;30.76
70127;BME280;57491;42.694;23.314;2023-08-06T10:03:28;93938.22;;;32.53;30.69
70127;BME280;57491;42.694;23.314;2023-08-06T10:05:55;93947.78;;;31.99;30.74
70127;BME280;57491;42.694;23.314;2023-08-06T10:08:24;93946.97;;;31.34;31.80
70127;BME280;57491;42.694;23.314;2023-08-06T10:10:51;93954.00;;;30.69;33.45
70127;BME280;57491;42.694;23.314;2023-08-06T10:13:20;93957.13;;;30.18;35.33
70127;BME280;57491;42.694;23.314;2023-08-06T10:15:48;93952.47;;;29.94;36.03
70127;BME280;57491;42.694;23.314;2023-08-06T10:18:15;93953.25;;;29.86;35.40
70127;BME280;57491;42.694;23.314;2023-08-06T10:20:46;93944.34;;;30.35;35.45
70127;BME280;57491;42.694;23.314;2023-08-06T10:23:13;93951.94;;;30.99;34.74
70127;BME280;57491;42.694;23.314;2023-08-06T10:25:41;93944.75;;;30.79;34.81
70127;BME280;57491;42.694;23.314;2023-08-06T10:28:08;93951.34;;;30.16;36.20
70127;BME280;57491;42.694;23.314;2023-08-06T10:30:42;93945.69;;;30.08;36.47
70127;BME280;57491;42.694;23.314;2023-08-06T10:33:10;93951.06;;;30.08;36.59
70127;BME280;57491;42.694;23.314;2023-08-06T10:35:37;93960.50;;;29.94;37.38
70127;BME280;57491;42.694;23.314;2023-08-06T10:38:05;93964.81;;;29.78;37.09
70127;BME280;57491;42.694;23.314;2023-08-06T10:40:32;93970.59;;;29.59;36.76
70127;BME280;57491;42.694;23.314;2023-08-06T10:42:59;93971.78;;;29.49;37.71
70127;BME280;57491;42.694;23.314;2023-08-06T10:45:26;93973.44;;;29.33;38.15
70127;BME280;57491;42.694;23.314;2023-08-06T10:47:57;93972.72;;;29.07;38.39
70127;BME280;57491;42.694;23.314;2023-08-06T10:50:24;93983.34;;;28.95;40.25
70127;BME280;57491;42.694;23.314;2023-08-06T10:52:50;93987.78;;;28.73;38.83
70127;BME280;57491;42.694;23.314;2023-08-06T10:55:24;93988.59;;;28.39;39.73
70127;BME280;57491;42.694;23.314;2023-08-06T10:57:52;93993.44;;;28.46;40.22
70127;BME280;57491;42.694;23.314;2023-08-06T11:00:20;93994.38;;;28.67;39.94
70127;BME280;57491;42.694;23.314;2023-08-06T11:02:47;93994.66;;;28.92;39.87
70127;BME280;57491;42.694;23.314;2023-08-06T11:05:15;93999.31;;;29.12;38.58
70127;BME280;57491;42.694;23.314;2023-08-06T11:07:43;93999.59;;;29.19;38.70
70127;BME280;57491;42.694;23.314;2023-08-06T11:10:10;93998.63;;;29.32;38.86
70127;BME280;57491;42.694;23.314;2023-08-06T11:12:38;94000.53;;;29.23;38.36
70127;BME280;57491;42.694;23.314;2023-08-06T11:15:05;94005.03;;;29.02;38.65
70127;BME280;57491;42.694;23.314;2023-08-06T11:17:33;94004.13;;;28.80;39.87
70127;BME280;57491;42.694;23.314;2023-08-06T11:20:00;94012.00;;;28.68;40.25
70127;BME280;57491;42.694;23.314;2023-08-06T11:22:28;94030.72;;;28.43;40.90
70127;BME280;57491;42.694;23.314;2023-08-06T11:24:55;94028.56;;;28.19;41.73
70127;BME280;57491;42.694;23.314;2023-08-06T11:27:22;94027.13;;;28.13;43.18
70127;BME280;57491;42.694;23.314;2023-08-06T11:29:49;94025.22;;;28.05;44.25
70127;BME280;57491;42.694;23.314;2023-08-06T11:32:16;94027.53;;;27.89;42.91
70127;BME280;57491;42.694;23.314;2023-08-06T11:34:43;94017.63;;;27.81;42.33
70127;BME280;57491;42.694;23.314;2023-08-06T11:37:09;94019.22;;;27.90;42.11
70127;BME280;57491;42.694;23.314;2023-08-06T11:39:38;94015.19;;;28.36;41.49
70127;BME280;57491;42.694;23.314;2023-08-06T11:42:05;94011.56;;;29.30;38.49
70127;BME280;57491;42.694;23.314;2023-08-06T11:44:33;94004.50;;;29.84;36.58
70127;BME280;57491;42.694;23.314;2023-08-06T11:47:01;94003.31;;;30.23;35.52
70127;BME280;57491;42.694;23.314;2023-08-06T11:52:15;94001.63;;;31.74;33.23
70127;BME280;57491;42.694;23.314;2023-08-06T11:54:46;94001.59;;;32.39;32.49
70127;BME280;57491;42.694;23.314;2023-08-06T11:57:12;93989.53;;;32.88;32.59
70127;BME280;57491;42.694;23.314;2023-08-06T11:59:39;93992.81;;;33.56;31.90
70127;BME280;57491;42.694;23.314;2023-08-06T12:02:08;93990.41;;;34.02;30.29
70127;BME280;57491;42.694;23.314;2023-08-06T12:07:25;93988.09;;;35.16;28.46
70127;BME280;57491;42.694;23.314;2023-08-06T12:09:53;93991.88;;;35.34;27.96
70127;BME280;57491;42.694;23.314;2023-08-06T12:12:20;93996.03;;;35.28;27.25
70127;BME280;57491;42.694;23.314;2023-08-06T12:14:47;93974.31;;;35.21;26.68
70127;BME280;57491;42.694;23.314;2023-08-06T12:17:14;93976.50;;;34.73;26.94
70127;BME280;57491;42.694;23.314;2023-08-06T12:19:41;93976.78;;;34.30;28.18
70127;BME280;57491;42.694;23.314;2023-08-06T12:22:07;93974.28;;;34.05;28.60
70127;BME280;57491;42.694;23.314;2023-08-06T12:24:34;93981.78;;;33.77;29.26
70127;BME280;57491;42.694;23.314;2023-08-06T12:27:03;93978.97;;;33.11;29.76
70127;BME280;57491;42.694;23.314;2023-08-06T12:29:29;93982.00;;;32.66;30.42
70127;BME280;57491;42.694;23.314;2023-08-06T12:31:57;93976.59;;;31.98;31.21
70127;BME280;57491;42.694;23.314;2023-08-06T12:34:24;93975.16;;;31.40;32.24
70127;BME280;57491;42.694;23.314;2023-08-06T12:36:50;93974.81;;;31.05;33.50
70127;BME280;57491;42.694;23.314;2023-08-06T12:39:17;93976.69;;;30.72;33.28
70127;BME280;57491;42.694;23.314;2023-08-06T12:41:44;93976.63;;;30.47;33.76
70127;BME280;57491;42.694;23.314;2023-08-06T12:44:12;93973.81;;;30.23;34.43
70127;BME280;57491;42.694;23.314;2023-08-06T12:46:39;93968.31;;;30.20;35.58
70127;BME280;57491;42.694;23.314;2023-08-06T12:49:06;93971.31;;;30.18;34.61
70127;BME280;57491;42.694;23.314;2023-08-06T12:51:33;93968.59;;;30.06;35.05
70127;BME280;57491;42.694;23.314;2023-08-06T12:54:00;93964.88;;;29.98;35.43
70127;BME280;57491;42.694;23.314;2023-08-06T12:56:26;93974.69;;;29.94;36.32